sensor_id;sensor_type;location;lat;lon;timestamp;temperature;humidity
70074;DHT22;57445;51.058;3.698;2023-05-10T00:02:09;14.90;99.90
70074;DHT22;57445;51.058;3.698;2023-05-10T00:04:37;14.90;99.90
70074;DHT22;57445;51.058;3.698;2023-05-10T00:07:04;14.90;99.90
70074;DHT22;57445;51.058;3.698;2023-05-10T00:09:38;14.80;99.90
70074;DHT22;57445;51.058;3.698;2023-05-10T00:12:06;14.70;99.90
70074;DHT22;57445;51.058;3.698;2023-05-10T00:14:33;14.90;99.90
70074;DHT22;57445;51.058;3.698;2023-05-10T00:17:01;15.10;99.90
70074;DHT22;57445;51.058;3.698;2023-05-10T00:19:28;15.00;99.90
70074;DHT22;57445;51.058;3.698;2023-05-10T00:21:56;15.20;99.90
70074;DHT22;57445;51.058;3.698;2023-05-10T00:24:28;15.20;99.90
70074;DHT22;57445;51.058;3.698;2023-05-10T00:26:57;15.20;99.90
70074;DHT22;57445;51.058;3.698;2023-05-10T00:29:26;15.10;99.90
70074;DHT22;57445;51.058;3.698;2023-05-10T00:31:54;15.30;99.90
70074;DHT22;57445;51.058;3.698;2023-05-10T00:34:22;15.40;99.90
70074;DHT22;57445;51.058;3.698;2023-05-10T00:36:50;15.40;99.90
70074;DHT22;57445;51.058;3.698;2023-05-10T00:39:18;15.30;99.90
70074;DHT22;57445;51.058;3.698;2023-05-10T00:41:45;15.10;99.90
70074;DHT22;57445;51.058;3.698;2023-05-10T00:44:19;14.90;99.90
70074;DHT22;57445;51.058;3.698;2023-05-10T00:46:51;14.80;99.90
70074;DHT22;57445;51.058;3.698;2023-05-10T00:49:24;14.70;99.90
70074;DHT22;57445;51.058;3.698;2023-05-10T00:51:51;14.70;99.90
70074;DHT22;57445;51.058;3.698;2023-05-10T00:54:23;14.50;99.90
70074;DHT22;57445;51.058;3.698;2023-05-10T00:56:55;14.60;99.90
70074;DHT22;57445;51.058;3.698;2023-05-10T00:59:24;14.50;99.90
70074;DHT22;57445;51.058;3.698;2023-05-10T01:01:57;14.50;99.90
70074;DHT22;57445;51.058;3.698;2023-05-10T01:04:24;14.50;99.90
70074;DHT22;57445;51.058;3.698;2023-05-10T01:06:52;14.40;99.90
70074;DHT22;57445;51.058;3.698;2023-05-10T01:09:24;14.40;99.90
70074;DHT22;57445;51.058;3.698;2023-05-10T01:11:58;14.30;99.90
70074;DHT22;57445;51.058;3.698;2023-05-10T01:14:33;14.40;99.90
70074;DHT22;57445;51.058;3.698;2023-05-10T01:17:02;14.50;99.90
70074;DHT22;57445;51.058;3.698;2023-05-10T01:19:33;14.30;99.90
70074;DHT22;57445;51.058;3.698;2023-05-10T01:22:05;14.30;99.90
70074;DHT22;57445;51.058;3.698;2023-05-10T01:27:47;14.60;99.90
70074;DHT22;57445;51.058;3.698;2023-05-10T01:30:28;14.70;99.90
70074;DHT22;57445;51.058;3.698;2023-05-10T01:33:05;14.60;99.90
70074;DHT22;57445;51.058;3.698;2023-05-10T01:35:36;14.50;99.90
70074;DHT22;57445;51.058;3.698;2023-05-10T01:38:07;14.50;99.90
70074;DHT22;57445;51.058;3.698;2023-05-10T01:40:45;14.60;99.90
70074;DHT22;57445;51.058;3.698;2023-05-10T01:43:17;14.70;99.90
70074;DHT22;57445;51.058;3.698;2023-05-10T01:45:54;14.50;99.90
70074;DHT22;57445;51.058;3.698;2023-05-10T01:48:27;14.40;99.90
70074;DHT22;57445;51.058;3.698;2023-05-10T01:50:59;14.40;99.90
70074;DHT22;57445;51.058;3.698;2023-05-10T01:53:32;14.40;99.90
70074;DHT22;57445;51.058;3.698;2023-05-10T01:56:02;14.40;99.90
70074;DHT22;57445;51.058;3.698;2023-05-10T01:58:31;14.40;99.90
70074;DHT22;57445;51.058;3.698;2023-05-10T02:01:01;14.30;99.90
70074;DHT22;57445;51.058;3.698;2023-05-10T02:03:32;14.20;99.90
70074;DHT22;57445;51.058;3.698;2023-05-10T02:06:03;14.10;99.90
70074;DHT22;57445;51.058;3.698;2023-05-10T02:08:32;14.20;99.90
70074;DHT22;57445;51.058;3.698;2023-05-10T02:11:02;14.20;99.90
70074;DHT22;57445;51.058;3.698;2023-05-10T02:13:33;14.30;99.90
70074;DHT22;57445;51.058;3.698;2023-05-10T02:16:02;14.30;99.90
70074;DHT22;57445;51.058;3.698;2023-05-10T02:18:32;14.30;99.90
70074;DHT22;57445;51.058;3.698;2023-05-10T02:21:05;14.30;99.90
70074;DHT22;57445;51.058;3.698;2023-05-10T02:23:33;14.30;99.90
70074;DHT22;57445;51.058;3.698;2023-05-10T02:26:02;14.30;99.90
70074;DHT22;57445;51.058;3.698;2023-05-10T02:28:36;14.30;99.90
70074;DHT22;57445;51.058;3.698;2023-05-10T02:31:04;14.40;99.90
70074;DHT22;57445;51.058;3.698;2023-05-10T02:33:38;14.40;99.90
70074;DHT22;57445;51.058;3.698;2023-05-10T02:36:07;14.20;99.90
70074;DHT22;57445;51.058;3.698;2023-05-10T02:38:36;14.30;99.90
70074;DHT22;57445;51.058;3.698;2023-05-10T02:41:04;14.20;99.90
70074;DHT22;57445;51.058;3.698;2023-05-10T02:43:37;14.10;99.90
70074;DHT22;57445;51.058;3.698;2023-05-10T02:46:05;14.10;99.90
70074;DHT22;57445;51.058;3.698;2023-05-10T02:48:32;14.50;99.90
70074;DHT22;57445;51.058;3.698;2023-05-10T02:51:03;14.20;99.90
70074;DHT22;57445;51.058;3.698;2023-05-10T02:53:32;14.10;99.90
70074;DHT22;57445;51.058;3.698;2023-05-10T02:56:01;14.00;99.90
70074;DHT22;57445;51.058;3.698;2023-05-10T02:58:30;14.00;99.90
70074;DHT22;57445;51.058;3.698;2023-05-10T03:00:57;14.20;99.90
70074;DHT22;57445;51.058;3.698;2023-05-10T03:03:25;14.10;99.90
70074;DHT22;57445;51.058;3.698;2023-05-10T03:05:52;14.00;99.90
70074;DHT22;57445;51.058;3.698;2023-05-10T03:08:23;14.00;99.90
70074;DHT22;57445;51.058;3.698;2023-05-10T03:10:55;14.00;99.90
70074;DHT22;57445;51.058;3.698;2023-05-10T03:13:28;14.00;99.90
70074;DHT22;57445;51.058;3.698;2023-05-10T03:15:58;13.80;99.90
70074;DHT22;57445;51.058;3.698;2023-05-10T03:18:33;13.70;99.90
70074;DHT22;57445;51.058;3.698;2023-05-10T03:21:03;13.70;99.90
70074;DHT22;57445;51.058;3.698;2023-05-10T03:23:35;13.90;99.90
70074;DHT22;57445;51.058;3.698;2023-05-10T03:26:07;14.00;99.90
70074;DHT22;57445;51.058;3.698;2023-05-10T03:28:35;14.10;99.90
70074;DHT22;57445;51.058;3.698;2023-05-10T03:31:03;14.10;99.90
70074;DHT22;57445;51.058;3.698;2023-05-10T03:33:32;14.20;99.90
70074;DHT22;57445;51.058;3.698;2023-05-10T03:35:59;14.30;99.90
70074;DHT22;57445;51.058;3.698;2023-05-10T03:38:27;14.30;99.90
70074;DHT22;57445;51.058;3.698;2023-05-10T03:40:56;14.40;99.90
70074;DHT22;57445;51.058;3.698;2023-05-10T03:43:24;14.30;99.90
70074;DHT22;57445;51.058;3.698;2023-05-10T03:45:51;14.20;99.90
70074;DHT22;57445;51.058;3.698;2023-05-10T03:48:19;14.40;99.90
70074;DHT22;57445;51.058;3.698;2023-05-10T03:50:46;14.40;99.90
70074;DHT22;57445;51.058;3.698;2023-05-10T03:53:15;14.50;99.90
70074;DHT22;57445;51.058;3.698;2023-05-10T03:55:42;14.50;99.90
70074;DHT22;57445;51.058;3.698;2023-05-10T03:58:12;14.30;99.90
70074;DHT22;57445;51.058;3.698;2023-05-10T04:00:39;14.20;99.90
70074;DHT22;57445;51.058;3.698;2023-05-10T04:03:09;14.40;99.90
70074;DHT22;57445;51.058;3.698;2023-05-10T04:05:37;14.50;99.90
70074;DHT22;57445;51.058;3.698;2023-05-10T04:08:05;14.50;99.90
70074;DHT22;57445;51.058;3.698;2023-05-10T04:10:33;14.30;99.90
70074;DHT22;57445;51.058;3.698;2023-05-10T04:13:00;14.30;99.90
70074;DHT22;57445;51.058;3.698;2023-05-10T04:15:29;14.20;99.90
70074;DHT22;57445;51.058;3.698;2023-05-10T04:17:57;14.10;99.90
70074;DHT22;57445;51.058;3.698;2023-05-10T04:20:25;14.20;99.90
70074;DHT22;57445;51.058;3.698;2023-05-10T04:22:53;14.20;99.90
70074;DHT22;57445;51.058;3.698;2023-05-10T04:25:21;14.10;99.90
70074;DHT22;57445;51.058;3.698;2023-05-10T04:27:49;14.20;99.90
70074;DHT22;57445;51.058;3.698;2023-05-10T04:30:16;14.30;99.90
70074;DHT22;57445;51.058;3.698;2023-05-10T04:32:45;14.50;99.90
70074;DHT22;57445;51.058;3.698;2023-05-10T04:35:14;14.80;99.90
70074;DHT22;57445;51.058;3.698;2023-05-10T04:37:42;14.90;99.90
70074;DHT22;57445;51.058;3.698;2023-05-10T04:40:09;15.00;99.90
70074;DHT22;57445;51.058;3.698;2023-05-10T04:42:42;15.00;99.90
70074;DHT22;57445;51.058;3.698;2023-05-10T04:45:15;15.10;99.90
70074;DHT22;57445;51.058;3.698;2023-05-10T04:47:43;15.10;99.90
70074;DHT22;57445;51.058;3.698;2023-05-10T04:50:12;15.00;99.90
70074;DHT22;57445;51.058;3.698;2023-05-10T04:52:39;15.10;99.90
70074;DHT22;57445;51.058;3.698;2023-05-10T04:55:07;15.10;99.90
70074;DHT22;57445;51.058;3.698;2023-05-10T04:57:36;15.20;99.90
70074;DHT22;57445;51.058;3.698;2023-05-10T05:00:08;15.40;99.90
70074;DHT22;57445;51.058;3.698;2023-05-10T05:02:36;15.40;99.90
70074;DHT22;57445;51.058;3.698;2023-05-10T05:05:04;15.30;99.90
70074;DHT22;57445;51.058;3.698;2023-05-10T05:07:33;15.20;99.90
70074;DHT22;57445;51.058;3.698;2023-05-10T05:10:00;15.30;99.90
70074;DHT22;57445;51.058;3.698;2023-05-10T05:12:29;15.40;99.90
70074;DHT22;57445;51.058;3.698;2023-05-10T05:14:57;15.40;99.90
70074;DHT22;57445;51.058;3.698;2023-05-10T05:17:24;15.40;99.90
70074;DHT22;57445;51.058;3.698;2023-05-10T05:19:52;15.50;99.90
70074;DHT22;57445;51.058;3.698;2023-05-10T05:22:19;15.40;99.90
70074;DHT22;57445;51.058;3.698;2023-05-10T05:24:55;15.50;99.90
70074;DHT22;57445;51.058;3.698;2023-05-10T05:27:24;15.50;99.90
70074;DHT22;57445;51.058;3.698;2023-05-10T05:29:54;15.40;99.90
70074;DHT22;57445;51.058;3.698;2023-05-10T05:32:21;15.30;99.90
70074;DHT22;57445;51.058;3.698;2023-05-10T05:34:49;15.40;99.90
70074;DHT22;57445;51.058;3.698;2023-05-10T05:37:17;15.50;99.90
70074;DHT22;57445;51.058;3.698;2023-05-10T05:39:45;15.50;99.90
70074;DHT22;57445;51.058;3.698;2023-05-10T05:42:15;15.40;99.90
70074;DHT22;57445;51.058;3.698;2023-05-10T05:44:46;15.40;99.90
70074;DHT22;57445;51.058;3.698;2023-05-10T05:47:15;15.50;99.90
70074;DHT22;57445;51.058;3.698;2023-05-10T05:49:43;15.60;99.90
70074;DHT22;57445;51.058;3.698;2023-05-10T05:52:12;15.60;99.90
70074;DHT22;57445;51.058;3.698;2023-05-10T05:54:39;15.50;99.90
70074;DHT22;57445;51.058;3.698;2023-05-10T05:57:07;15.50;99.90
70074;DHT22;57445;51.058;3.698;2023-05-10T05:59:43;15.50;99.90
70074;DHT22;57445;51.058;3.698;2023-05-10T06:02:11;15.60;99.90
70074;DHT22;57445;51.058;3.698;2023-05-10T06:04:39;15.80;99.90
70074;DHT22;57445;51.058;3.698;2023-05-10T06:07:06;15.90;99.90
70074;DHT22;57445;51.058;3.698;2023-05-10T06:09:34;16.10;99.90
70074;DHT22;57445;51.058;3.698;2023-05-10T06:12:08;16.30;99.90
70074;DHT22;57445;51.058;3.698;2023-05-10T06:14:40;16.30;99.90
70074;DHT22;57445;51.058;3.698;2023-05-10T06:17:09;16.20;99.90
70074;DHT22;57445;51.058;3.698;2023-05-10T06:19:37;16.20;99.90
70074;DHT22;57445;51.058;3.698;2023-05-10T06:22:04;16.40;99.90
70074;DHT22;57445;51.058;3.698;2023-05-10T06:24:32;16.40;99.90
70074;DHT22;57445;51.058;3.698;2023-05-10T06:27:02;16.30;99.90
70074;DHT22;57445;51.058;3.698;2023-05-10T06:29:30;16.20;99.90
70074;DHT22;57445;51.058;3.698;2023-05-10T06:31:58;16.10;99.90
70074;DHT22;57445;51.058;3.698;2023-05-10T06:34:27;16.10;99.90
70074;DHT22;57445;51.058;3.698;2023-05-10T06:36:59;16.40;99.90
70074;DHT22;57445;51.058;3.698;2023-05-10T06:39:31;16.50;99.90
70074;DHT22;57445;51.058;3.698;2023-05-10T06:41:59;16.30;99.90
70074;DHT22;57445;51.058;3.698;2023-05-10T06:44:27;15.80;99.90
70074;DHT22;57445;51.058;3.698;2023-05-10T06:47:02;15.50;99.90
70074;DHT22;57445;51.058;3.698;2023-05-10T06:49:31;15.70;99.90
70074;DHT22;57445;51.058;3.698;2023-05-10T06:51:58;16.00;99.90
70074;DHT22;57445;51.058;3.698;2023-05-10T06:54:30;16.70;99.90
70074;DHT22;57445;51.058;3.698;2023-05-10T06:57:03;17.20;99.50
70074;DHT22;57445;51.058;3.698;2023-05-10T06:59:35;17.90;97.90
70074;DHT22;57445;51.058;3.698;2023-05-10T07:02:07;18.50;96.30
70074;DHT22;57445;51.058;3.698;2023-05-10T07:04:41;19.00;96.60
70074;DHT22;57445;51.058;3.698;2023-05-10T07:07:13;19.10;95.10
70074;DHT22;57445;51.058;3.698;2023-05-10T07:09:41;18.90;95.20
70074;DHT22;57445;51.058;3.698;2023-05-10T07:12:13;18.80;95.70
70074;DHT22;57445;51.058;3.698;2023-05-10T07:14:40;18.50;95.60
70074;DHT22;57445;51.058;3.698;2023-05-10T07:17:12;18.20;96.10
70074;DHT22;57445;51.058;3.698;2023-05-10T07:19:41;18.00;96.50
70074;DHT22;57445;51.058;3.698;2023-05-10T07:22:09;17.90;96.50
70074;DHT22;57445;51.058;3.698;2023-05-10T07:24:41;17.30;97.40
70074;DHT22;57445;51.058;3.698;2023-05-10T07:27:08;17.00;98.00
70074;DHT22;57445;51.058;3.698;2023-05-10T07:29:36;16.70;98.50
70074;DHT22;57445;51.058;3.698;2023-05-10T07:32:04;16.60;98.60
70074;DHT22;57445;51.058;3.698;2023-05-10T07:34:32;16.50;99.00
70074;DHT22;57445;51.058;3.698;2023-05-10T07:37:01;16.70;98.60
70074;DHT22;57445;51.058;3.698;2023-05-10T07:39:28;16.80;98.90
70074;DHT22;57445;51.058;3.698;2023-05-10T07:41:56;17.10;98.50
70074;DHT22;57445;51.058;3.698;2023-05-10T07:44:24;17.20;98.10
70074;DHT22;57445;51.058;3.698;2023-05-10T07:46:53;17.30;97.30
70074;DHT22;57445;51.058;3.698;2023-05-10T07:49:22;16.70;98.20
70074;DHT22;57445;51.058;3.698;2023-05-10T07:51:51;16.40;98.80
70074;DHT22;57445;51.058;3.698;2023-05-10T07:54:21;16.70;98.80
70074;DHT22;57445;51.058;3.698;2023-05-10T07:56:53;16.90;98.30
70074;DHT22;57445;51.058;3.698;2023-05-10T07:59:21;17.20;98.00
70074;DHT22;57445;51.058;3.698;2023-05-10T08:01:48;16.90;98.00
70074;DHT22;57445;51.058;3.698;2023-05-10T08:04:17;16.90;98.20
70074;DHT22;57445;51.058;3.698;2023-05-10T08:06:45;16.90;98.20
70074;DHT22;57445;51.058;3.698;2023-05-10T08:09:12;17.50;97.80
70074;DHT22;57445;51.058;3.698;2023-05-10T08:11:42;18.10;97.00
70074;DHT22;57445;51.058;3.698;2023-05-10T08:14:09;18.20;96.60
70074;DHT22;57445;51.058;3.698;2023-05-10T08:16:37;18.50;96.40
70074;DHT22;57445;51.058;3.698;2023-05-10T08:19:05;18.60;95.70
70074;DHT22;57445;51.058;3.698;2023-05-10T08:21:32;18.50;95.50
70074;DHT22;57445;51.058;3.698;2023-05-10T08:24:00;18.30;95.90
70074;DHT22;57445;51.058;3.698;2023-05-10T08:26:33;17.60;96.50
70074;DHT22;57445;51.058;3.698;2023-05-10T08:29:02;17.60;96.60
70074;DHT22;57445;51.058;3.698;2023-05-10T08:31:30;17.60;96.50
70074;DHT22;57445;51.058;3.698;2023-05-10T08:33:57;17.20;97.00
70074;DHT22;57445;51.058;3.698;2023-05-10T08:36:25;17.20;97.50
70074;DHT22;57445;51.058;3.698;2023-05-10T08:38:53;17.40;97.20
70074;DHT22;57445;51.058;3.698;2023-05-10T08:41:21;17.40;97.20
70074;DHT22;57445;51.058;3.698;2023-05-10T08:43:50;17.50;97.00
70074;DHT22;57445;51.058;3.698;2023-05-10T08:46:23;17.70;96.60
70074;DHT22;57445;51.058;3.698;2023-05-10T08:48:51;17.80;96.50
70074;DHT22;57445;51.058;3.698;2023-05-10T08:51:19;17.90;96.30
70074;DHT22;57445;51.058;3.698;2023-05-10T08:53:51;18.20;95.70
70074;DHT22;57445;51.058;3.698;2023-05-10T08:56:19;18.00;95.90
70074;DHT22;57445;51.058;3.698;2023-05-10T08:58:47;17.80;96.40
70074;DHT22;57445;51.058;3.698;2023-05-10T09:01:16;18.00;96.00
70074;DHT22;57445;51.058;3.698;2023-05-10T09:03:45;17.50;96.80
70074;DHT22;57445;51.058;3.698;2023-05-10T09:06:13;17.40;97.30
70074;DHT22;57445;51.058;3.698;2023-05-10T09:08:41;17.30;97.70
70074;DHT22;57445;51.058;3.698;2023-05-10T09:11:09;16.90;98.00
70074;DHT22;57445;51.058;3.698;2023-05-10T09:13:37;16.70;98.40
70074;DHT22;57445;51.058;3.698;2023-05-10T09:16:05;16.60;98.70
70074;DHT22;57445;51.058;3.698;2023-05-10T09:18:33;16.50;99.10
70074;DHT22;57445;51.058;3.698;2023-05-10T09:21:02;16.50;99.40
70074;DHT22;57445;51.058;3.698;2023-05-10T09:23:30;16.80;98.70
70074;DHT22;57445;51.058;3.698;2023-05-10T09:26:02;17.00;97.70
70074;DHT22;57445;51.058;3.698;2023-05-10T09:28:31;17.10;98.00
70074;DHT22;57445;51.058;3.698;2023-05-10T09:30:59;17.70;97.10
70074;DHT22;57445;51.058;3.698;2023-05-10T09:33:26;18.30;96.30
70074;DHT22;57445;51.058;3.698;2023-05-10T09:35:54;18.40;95.90
70074;DHT22;57445;51.058;3.698;2023-05-10T09:38:27;18.90;95.30
70074;DHT22;57445;51.058;3.698;2023-05-10T09:40:59;19.40;94.80
70074;DHT22;57445;51.058;3.698;2023-05-10T09:43:28;19.50;93.80
70074;DHT22;57445;51.058;3.698;2023-05-10T09:46:08;19.60;93.70
70074;DHT22;57445;51.058;3.698;2023-05-10T09:48:41;19.70;93.80
70074;DHT22;57445;51.058;3.698;2023-05-10T09:51:09;19.90;93.30
70074;DHT22;57445;51.058;3.698;2023-05-10T09:53:38;20.00;93.30
70074;DHT22;57445;51.058;3.698;2023-05-10T09:56:06;20.20;93.10
70074;DHT22;57445;51.058;3.698;2023-05-10T09:58:36;20.10;92.90
70074;DHT22;57445;51.058;3.698;2023-05-10T10:01:04;20.20;92.10
70074;DHT22;57445;51.058;3.698;2023-05-10T10:03:31;19.90;92.50
70074;DHT22;57445;51.058;3.698;2023-05-10T10:05:59;20.40;92.40
70074;DHT22;57445;51.058;3.698;2023-05-10T10:08:26;20.60;92.20
70074;DHT22;57445;51.058;3.698;2023-05-10T10:11:00;20.50;91.50
70074;DHT22;57445;51.058;3.698;2023-05-10T10:13:28;19.80;92.70
70074;DHT22;57445;51.058;3.698;2023-05-10T10:15:58;20.50;91.90
70074;DHT22;57445;51.058;3.698;2023-05-10T10:18:30;20.90;91.50
70074;DHT22;57445;51.058;3.698;2023-05-10T10:20:58;20.90;91.10
70074;DHT22;57445;51.058;3.698;2023-05-10T10:23:27;21.00;90.90
70074;DHT22;57445;51.058;3.698;2023-05-10T10:25:54;21.50;89.70
70074;DHT22;57445;51.058;3.698;2023-05-10T10:28:32;22.10;87.10
70074;DHT22;57445;51.058;3.698;2023-05-10T10:31:10;21.80;88.00
70074;DHT22;57445;51.058;3.698;2023-05-10T10:33:56;22.30;87.40
70074;DHT22;57445;51.058;3.698;2023-05-10T10:36:27;21.60;87.80
70074;DHT22;57445;51.058;3.698;2023-05-10T10:38:56;21.80;90.00
70074;DHT22;57445;51.058;3.698;2023-05-10T10:41:30;22.30;89.00
70074;DHT22;57445;51.058;3.698;2023-05-10T10:47:01;21.20;88.60
70074;DHT22;57445;51.058;3.698;2023-05-10T10:49:31;21.70;87.90
70074;DHT22;57445;51.058;3.698;2023-05-10T10:52:13;21.90;87.50
70074;DHT22;57445;51.058;3.698;2023-05-10T10:54:46;21.80;87.50
70074;DHT22;57445;51.058;3.698;2023-05-10T10:57:17;21.50;88.10
70074;DHT22;57445;51.058;3.698;2023-05-10T10:59:45;21.00;89.60
70074;DHT22;57445;51.058;3.698;2023-05-10T11:04:57;21.10;89.80
70074;DHT22;57445;51.058;3.698;2023-05-10T11:07:24;21.60;88.40
70074;DHT22;57445;51.058;3.698;2023-05-10T11:09:52;21.70;88.40
70074;DHT22;57445;51.058;3.698;2023-05-10T11:12:19;21.00;89.30
70074;DHT22;57445;51.058;3.698;2023-05-10T11:14:52;20.40;91.20
70074;DHT22;57445;51.058;3.698;2023-05-10T11:17:28;20.00;92.10
70074;DHT22;57445;51.058;3.698;2023-05-10T11:20:07;19.50;93.20
70074;DHT22;57445;51.058;3.698;2023-05-10T11:22:49;19.10;93.80
70074;DHT22;57445;51.058;3.698;2023-05-10T11:25:18;18.80;94.40
70074;DHT22;57445;51.058;3.698;2023-05-10T11:27:50;18.50;94.90
70074;DHT22;57445;51.058;3.698;2023-05-10T11:30:18;18.50;95.10
70074;DHT22;57445;51.058;3.698;2023-05-10T11:32:47;18.20;95.50
70074;DHT22;57445;51.058;3.698;2023-05-10T11:35:16;18.00;95.90
70074;DHT22;57445;51.058;3.698;2023-05-10T11:37:43;18.20;96.30
70074;DHT22;57445;51.058;3.698;2023-05-10T11:40:16;18.70;95.80
70074;DHT22;57445;51.058;3.698;2023-05-10T11:42:43;18.80;95.30
70074;DHT22;57445;51.058;3.698;2023-05-10T11:45:11;19.40;95.00
70074;DHT22;57445;51.058;3.698;2023-05-10T11:47:39;19.80;94.10
70074;DHT22;57445;51.058;3.698;2023-05-10T11:50:10;19.90;93.90
70074;DHT22;57445;51.058;3.698;2023-05-10T11:52:41;20.20;93.90
70074;DHT22;57445;51.058;3.698;2023-05-10T11:55:08;21.00;93.30
70074;DHT22;57445;51.058;3.698;2023-05-10T11:57:36;21.90;91.90
70074;DHT22;57445;51.058;3.698;2023-05-10T12:00:07;22.30;91.10
70074;DHT22;57445;51.058;3.698;2023-05-10T12:02:34;22.90;90.60
70074;DHT22;57445;51.058;3.698;2023-05-10T12:05:03;22.70;89.80
70074;DHT22;57445;51.058;3.698;2023-05-10T12:07:31;22.60;90.20
70074;DHT22;57445;51.058;3.698;2023-05-10T12:10:06;22.60;89.60
70074;DHT22;57445;51.058;3.698;2023-05-10T12:12:38;22.00;90.50
70074;DHT22;57445;51.058;3.698;2023-05-10T12:15:06;22.00;90.70
70074;DHT22;57445;51.058;3.698;2023-05-10T12:17:37;21.90;90.70
70074;DHT22;57445;51.058;3.698;2023-05-10T12:20:13;22.30;90.90
70074;DHT22;57445;51.058;3.698;2023-05-10T12:22:43;22.10;90.70
70074;DHT22;57445;51.058;3.698;2023-05-10T12:25:15;21.60;90.70
70074;DHT22;57445;51.058;3.698;2023-05-10T12:27:50;21.10;91.80
70074;DHT22;57445;51.058;3.698;2023-05-10T12:30:21;20.80;92.40
70074;DHT22;57445;51.058;3.698;2023-05-10T12:32:49;21.10;91.80
70074;DHT22;57445;51.058;3.698;2023-05-10T12:35:17;21.00;92.10
70074;DHT22;57445;51.058;3.698;2023-05-10T12:37:52;20.60;92.40
70074;DHT22;57445;51.058;3.698;2023-05-10T12:40:21;20.50;92.90
70074;DHT22;57445;51.058;3.698;2023-05-10T12:42:49;20.30;93.40
70074;DHT22;57445;51.058;3.698;2023-05-10T12:45:21;19.50;94.50
70074;DHT22;57445;51.058;3.698;2023-05-10T12:47:49;19.20;95.20
70074;DHT22;57445;51.058;3.698;2023-05-10T12:50:17;19.20;95.20
70074;DHT22;57445;51.058;3.698;2023-05-10T12:52:44;19.20;95.30
70074;DHT22;57445;51.058;3.698;2023-05-10T12:55:13;19.00;95.50
70074;DHT22;57445;51.058;3.698;2023-05-10T12:57:43;19.00;95.10
70074;DHT22;57445;51.058;3.698;2023-05-10T13:00:16;19.00;95.40
70074;DHT22;57445;51.058;3.698;2023-05-10T13:02:49;19.00;95.80
70074;DHT22;57445;51.058;3.698;2023-05-10T13:05:21;18.90;95.90
70074;DHT22;57445;51.058;3.698;2023-05-10T13:07:49;19.30;95.70
70074;DHT22;57445;51.058;3.698;2023-05-10T13:10:17;19.20;96.00
70074;DHT22;57445;51.058;3.698;2023-05-10T13:12:50;19.30;95.90
70074;DHT22;57445;51.058;3.698;2023-05-10T13:15:18;19.40;96.10
70074;DHT22;57445;51.058;3.698;2023-05-10T13:17:47;19.50;95.40
70074;DHT22;57445;51.058;3.698;2023-05-10T13:20:15;19.40;95.60
70074;DHT22;57445;51.058;3.698;2023-05-10T13:22:42;19.30;95.90
70074;DHT22;57445;51.058;3.698;2023-05-10T13:25:14;19.00;96.40
70074;DHT22;57445;51.058;3.698;2023-05-10T13:27:42;18.80;97.00
70074;DHT22;57445;51.058;3.698;2023-05-10T13:30:12;18.90;96.60
70074;DHT22;57445;51.058;3.698;2023-05-10T13:32:39;19.00;96.10
70074;DHT22;57445;51.058;3.698;2023-05-10T13:35:07;19.00;96.10
70074;DHT22;57445;51.058;3.698;2023-05-10T13:37:35;19.10;96.10
70074;DHT22;57445;51.058;3.698;2023-05-10T13:40:04;19.20;96.30
70074;DHT22;57445;51.058;3.698;2023-05-10T13:42:32;19.30;95.90
70074;DHT22;57445;51.058;3.698;2023-05-10T13:45:01;19.30;95.80
70074;DHT22;57445;51.058;3.698;2023-05-10T13:47:30;19.60;95.20
70074;DHT22;57445;51.058;3.698;2023-05-10T13:49:58;19.50;95.40
70074;DHT22;57445;51.058;3.698;2023-05-10T13:52:26;19.50;95.20
70074;DHT22;57445;51.058;3.698;2023-05-10T13:54:58;19.40;95.30
70074;DHT22;57445;51.058;3.698;2023-05-10T13:57:26;19.30;95.90
70074;DHT22;57445;51.058;3.698;2023-05-10T13:59:59;19.00;95.90
70074;DHT22;57445;51.058;3.698;2023-05-10T14:02:33;19.00;96.40
70074;DHT22;57445;51.058;3.698;2023-05-10T14:05:01;19.00;96.30
70074;DHT22;57445;51.058;3.698;2023-05-10T14:07:29;19.10;96.30
70074;DHT22;57445;51.058;3.698;2023-05-10T14:09:56;19.00;96.30
70074;DHT22;57445;51.058;3.698;2023-05-10T14:12:25;18.90;96.50
70074;DHT22;57445;51.058;3.698;2023-05-10T14:14:57;18.90;96.70
70074;DHT22;57445;51.058;3.698;2023-05-10T14:17:25;18.80;97.00
70074;DHT22;57445;51.058;3.698;2023-05-10T14:19:54;18.80;97.20
70074;DHT22;57445;51.058;3.698;2023-05-10T14:22:22;18.70;97.30
70074;DHT22;57445;51.058;3.698;2023-05-10T14:24:50;19.00;97.20
70074;DHT22;57445;51.058;3.698;2023-05-10T14:27:17;19.20;96.40
70074;DHT22;57445;51.058;3.698;2023-05-10T14:29:45;19.20;96.30
70074;DHT22;57445;51.058;3.698;2023-05-10T14:32:13;19.20;96.30
70074;DHT22;57445;51.058;3.698;2023-05-10T14:34:41;19.10;96.00
70074;DHT22;57445;51.058;3.698;2023-05-10T14:37:11;19.00;96.40
70074;DHT22;57445;51.058;3.698;2023-05-10T14:39:38;18.80;95.90
70074;DHT22;57445;51.058;3.698;2023-05-10T14:42:11;19.00;96.10
70074;DHT22;57445;51.058;3.698;2023-05-10T14:44:43;19.20;95.90
70074;DHT22;57445;51.058;3.698;2023-05-10T14:47:11;19.20;95.40
70074;DHT22;57445;51.058;3.698;2023-05-10T14:49:39;19.40;95.40
70074;DHT22;57445;51.058;3.698;2023-05-10T14:52:13;19.00;94.50
70074;DHT22;57445;51.058;3.698;2023-05-10T14:54:41;18.90;95.10
70074;DHT22;57445;51.058;3.698;2023-05-10T14:57:09;19.20;94.60
70074;DHT22;57445;51.058;3.698;2023-05-10T14:59:36;19.20;94.10
70074;DHT22;57445;51.058;3.698;2023-05-10T15:02:04;18.70;94.00
70074;DHT22;57445;51.058;3.698;2023-05-10T15:04:31;18.20;93.70
70074;DHT22;57445;51.058;3.698;2023-05-10T15:06:59;18.60;94.20
70074;DHT22;57445;51.058;3.698;2023-05-10T15:09:32;19.00;93.60
70074;DHT22;57445;51.058;3.698;2023-05-10T15:12:04;18.90;92.40
70074;DHT22;57445;51.058;3.698;2023-05-10T15:14:32;18.70;92.80
70074;DHT22;57445;51.058;3.698;2023-05-10T15:17:06;18.70;93.10
70074;DHT22;57445;51.058;3.698;2023-05-10T15:19:39;18.80;92.50
70074;DHT22;57445;51.058;3.698;2023-05-10T15:22:06;18.70;93.10
70074;DHT22;57445;51.058;3.698;2023-05-10T15:24:36;18.60;93.10
70074;DHT22;57445;51.058;3.698;2023-05-10T15:27:06;18.70;93.00
70074;DHT22;57445;51.058;3.698;2023-05-10T15:29:34;18.80;93.00
70074;DHT22;57445;51.058;3.698;2023-05-10T15:32:01;18.60;92.60
70074;DHT22;57445;51.058;3.698;2023-05-10T15:34:29;18.30;92.30
70074;DHT22;57445;51.058;3.698;2023-05-10T15:37:01;18.60;92.70
70074;DHT22;57445;51.058;3.698;2023-05-10T15:39:29;18.90;92.20
70074;DHT22;57445;51.058;3.698;2023-05-10T15:42:03;19.10;91.20
70074;DHT22;57445;51.058;3.698;2023-05-10T15:44:31;19.20;91.30
70074;DHT22;57445;51.058;3.698;2023-05-10T15:47:01;19.10;91.00
70074;DHT22;57445;51.058;3.698;2023-05-10T15:49:34;18.80;91.50
70074;DHT22;57445;51.058;3.698;2023-05-10T15:52:01;19.00;91.50
70074;DHT22;57445;51.058;3.698;2023-05-10T15:54:33;18.90;91.00